Time;durP1;ratioP1;P1;durP2;ratioP2;P2;SDS_P1;SDS_P2;PMS_P1;PMS_P2;Temp;Humidity;BMP_temperature;BMP_pressure;BME280_temperature;BME280_humidity;BME280_pressure;Samples;Min_cycle;Max_cycle;Signal;HPM_P1;HPM_P2
2022/01/12 00:01:11;;;;;;;9.50;3.20;;;12.90;99.90;;;;;;4995487;22;114334;-68
2022/01/12 00:03:37;;;;;;;4.63;2.50;;;12.90;99.90;;;;;;4963582;28;113499;-70
2022/01/12 00:06:04;;;;;;;4.03;2.22;;;12.90;99.90;;;;;;4965119;28;112420;-72
2022/01/12 00:08:31;;;;;;;5.57;2.28;;;12.90;99.90;;;;;;4965136;28;112484;-69
2022/01/12 00:11:01;;;;;;;2.63;1.67;;;12.90;99.90;;;;;;4947365;28;115333;-69
2022/01/12 00:13:27;;;;;;;;;;;12.90;99.90;;;;;;4964839;28;113029;-69
2022/01/12 00:15:53;;;;;;;5.75;2.45;;;12.80;99.90;;;;;;4966256;28;112514;-70
2022/01/12 00:18:20;;;;;;;4.75;2.05;;;12.80;99.90;;;;;;4963315;28;113047;-70
2022/01/12 00:20:47;;;;;;;2.80;1.85;;;12.80;99.90;;;;;;4945029;28;113721;-70
2022/01/12 00:23:15;;;;;;;3.50;2.00;;;12.80;99.90;;;;;;4945136;28;112663;-68
2022/01/12 00:26:04;;;;;;;4.45;2.38;;;12.70;99.90;;;;;;4928204;28;112599;-69
2022/01/12 00:34:03;;;;;;;3.42;2.30;;;12.60;99.90;;;;;;4945343;28;112398;-68
2022/01/12 00:36:30;;;;;;;4.82;3.28;;;12.60;99.90;;;;;;4945654;28;112622;-69
2022/01/12 00:38:57;;;;;;;30.42;5.95;;;12.60;99.90;;;;;;4928229;28;112566;-70
2022/01/12 00:41:23;;;;;;;42.38;8.07;;;12.70;99.90;;;;;;4945075;28;112911;-69
2022/01/12 00:43:56;;;;;;;29.30;8.05;;;12.70;99.90;;;;;;4944369;28;113325;-69
2022/01/12 00:46:23;;;;;;;47.15;8.55;;;12.70;99.90;;;;;;4970096;28;112409;-68
2022/01/12 00:48:51;;;;;;;36.13;7.32;;;12.80;99.90;;;;;;4966551;28;112918;-68
2022/01/12 00:51:17;;;;;;;42.97;8.48;;;12.90;99.90;;;;;;4983959;28;113015;-69
2022/01/12 00:53:42;;;;;;;39.97;8.73;;;12.90;99.90;;;;;;4983521;28;112732;-69
2022/01/12 00:56:08;;;;;;;49.30;10.00;;;12.90;99.90;;;;;;4971818;28;112797;-68
2022/01/12 00:58:35;;;;;;;66.53;10.93;;;12.90;99.90;;;;;;4964968;28;112365;-69
2022/01/12 01:01:01;;;;;;;37.28;10.35;;;12.90;99.90;;;;;;4963487;28;113509;-69
2022/01/12 01:03:29;;;;;;;51.53;9.25;;;13.00;99.90;;;;;;4946261;28;113958;-68
2022/01/12 01:05:55;;;;;;;56.75;10.38;;;12.90;99.90;;;;;;4965349;28;112731;-69
2022/01/12 01:08:22;;;;;;;42.38;9.65;;;13.00;99.90;;;;;;4965832;28;112383;-67
2022/01/12 01:10:51;;;;;;;64.40;9.25;;;13.00;99.90;;;;;;4964976;28;113892;-69
2022/01/12 01:13:23;;;;;;;64.47;11.50;;;13.00;99.90;;;;;;4947011;28;115666;-70
2022/01/12 01:26:36;;;;;;;73.75;13.13;;;13.10;99.90;;;;;;4973191;28;112472;-69
2022/01/12 01:29:04;;;;;;;56.88;10.95;;;13.00;99.90;;;;;;4938633;28;112525;-68
2022/01/12 01:31:33;;;;;;;34.75;6.47;;;13.10;99.90;;;;;;4968942;28;114202;-67
2022/01/12 01:34:06;;;;;;;43.10;6.20;;;13.10;99.90;;;;;;4968088;28;114340;-68
2022/01/12 01:36:36;;;;;;;27.88;5.00;;;13.00;99.90;;;;;;4968430;28;112637;-66
2022/01/12 01:39:03;;;;;;;22.05;3.80;;;13.10;99.90;;;;;;4950439;28;112722;-70
2022/01/12 01:41:29;;;;;;;16.33;2.72;;;13.00;99.90;;;;;;4949462;28;114208;-68
2022/01/12 01:55:08;;;;;;;13.80;4.00;;;12.80;99.90;;;;;;4966737;28;112405;-67
2022/01/12 01:57:34;;;;;;;12.95;2.42;;;12.70;99.90;;;;;;4967232;28;112400;-67
2022/01/12 02:00:02;;;;;;;11.00;2.25;;;12.60;99.90;;;;;;4967466;28;112558;-67
2022/01/12 02:02:28;;;;;;;12.98;3.08;;;12.60;99.90;;;;;;4966848;28;113134;-67
2022/01/12 02:04:54;;;;;;;9.30;2.65;;;12.50;99.90;;;;;;4967172;28;112709;-68
2022/01/12 02:07:20;;;;;;;10.60;2.67;;;12.40;99.90;;;;;;4967610;28;112381;-68
2022/01/12 02:09:45;;;;;;;13.35;2.65;;;12.40;99.90;;;;;;4967259;28;112326;-68
2022/01/12 02:12:12;;;;;;;8.52;2.17;;;12.30;99.90;;;;;;4966298;28;114914;-67
2022/01/12 02:14:39;;;;;;;12.88;2.53;;;12.30;99.90;;;;;;4965794;28;114146;-67
2022/01/12 02:17:15;;;;;;;10.60;3.25;;;12.20;99.90;;;;;;4948976;28;112729;-68
2022/01/12 02:36:13;;;;;;;3.45;1.63;;;12.10;99.90;;;;;;4965605;28;112367;-67
2022/01/12 02:41:24;;;;;;;6.55;1.60;;;12.20;99.90;;;;;;4966867;28;112896;-66
2022/01/12 02:54:43;;;;;;;4.77;1.67;;;12.20;99.90;;;;;;4964458;28;112771;-67
2022/01/12 02:57:09;;;;;;;3.90;1.85;;;12.20;99.90;;;;;;4946251;28;113462;-68
2022/01/12 02:59:36;;;;;;;8.52;1.55;;;12.20;99.90;;;;;;4946833;28;112525;-68
2022/01/12 03:02:29;;;;;;;5.22;1.50;;;12.10;99.90;;;;;;4912426;28;112700;-68
2022/01/12 03:07:41;;;;;;;5.43;3.05;;;12.10;99.90;;;;;;4914849;28;112820;-69
2022/01/12 03:10:09;;;;;;;6.75;2.20;;;12.10;99.90;;;;;;4929028;28;112515;-68
2022/01/12 03:12:40;;;;;;;13.30;2.45;;;12.10;99.90;;;;;;4946624;28;112864;-68
2022/01/12 03:15:06;;;;;;;12.07;2.97;;;12.10;99.90;;;;;;4945498;28;112630;-69
2022/01/12 03:17:32;;;;;;;16.00;3.03;;;12.10;99.90;;;;;;4946082;28;114493;-68
2022/01/12 03:19:58;;;;;;;14.25;3.83;;;12.10;99.90;;;;;;4946759;28;112291;-68
2022/01/12 03:22:23;;;;;;;25.27;5.53;;;12.10;99.90;;;;;;4978993;22;112840;-66
2022/01/12 03:24:49;;;;;;;34.60;6.03;;;12.10;99.90;;;;;;4927730;28;116874;-67
2022/01/12 03:27:16;;;;;;;40.83;8.25;;;12.20;99.90;;;;;;4942865;28;112746;-67
2022/01/12 03:29:43;;;;;;;38.92;5.72;;;12.20;99.90;;;;;;4928717;28;112702;-68
2022/01/12 03:32:12;;;;;;;21.67;6.18;;;12.20;99.90;;;;;;4946057;28;112488;-65
2022/01/12 03:34:41;;;;;;;31.35;6.47;;;12.30;99.90;;;;;;4945350;28;113228;-66
2022/01/12 03:39:42;;;;;;;18.58;4.88;;;12.30;99.90;;;;;;4952653;28;112540;-69
2022/01/12 03:42:08;;;;;;;34.88;5.70;;;12.30;99.90;;;;;;4965878;28;112431;-68
2022/01/12 03:44:34;;;;;;;22.90;4.65;;;12.30;99.90;;;;;;4951216;28;115003;-68
2022/01/12 03:47:00;;;;;;;23.10;5.10;;;12.40;99.90;;;;;;4945809;28;112325;-68
2022/01/12 03:49:27;;;;;;;20.58;5.90;;;12.40;99.90;;;;;;4946345;28;112671;-68
2022/01/12 03:51:53;;;;;;;26.45;5.20;;;12.50;99.90;;;;;;4944314;28;112565;-68
2022/01/12 03:54:20;;;;;;;21.27;4.05;;;12.50;99.90;;;;;;4945346;28;113216;-68
2022/01/12 03:56:46;;;;;;;40.58;7.15;;;12.50;99.90;;;;;;4958220;28;113312;-67
2022/01/12 03:59:12;;;;;;;24.70;5.40;;;12.50;99.90;;;;;;4965937;28;112385;-68
2022/01/12 04:01:38;;;;;;;36.40;7.60;;;12.50;99.90;;;;;;4964050;28;112730;-66
2022/01/12 04:04:16;;;;;;;42.25;8.20;;;12.50;99.90;;;;;;4946763;28;114312;-67
2022/01/12 04:09:26;;;;;;;31.98;6.20;;;12.50;99.90;;;;;;4966135;28;112367;-68
2022/01/12 04:11:51;;;;;;;36.72;6.75;;;12.60;99.90;;;;;;4947514;28;113529;-67
2022/01/12 04:14:17;;;;;;;30.60;6.95;;;12.60;99.90;;;;;;4947284;28;113195;-67
2022/01/12 04:16:44;;;;;;;25.42;6.55;;;12.60;99.90;;;;;;4962310;28;115545;-67
2022/01/12 04:19:10;;;;;;;24.98;4.82;;;12.60;99.90;;;;;;4947518;28;112533;-67
2022/01/12 04:21:42;;;;;;;29.33;4.32;;;12.60;99.90;;;;;;4965480;28;112411;-67
2022/01/12 04:24:08;;;;;;;9.25;2.97;;;12.60;99.90;;;;;;4948233;28;113013;-68
2022/01/12 04:26:34;;;;;;;15.90;3.50;;;12.60;99.90;;;;;;4964743;28;113408;-67
2022/01/12 04:29:00;;;;;;;9.93;2.75;;;12.60;99.90;;;;;;4964274;28;112232;-67
2022/01/12 04:31:26;;;;;;;11.35;4.03;;;12.60;99.90;;;;;;4964729;28;112505;-67
2022/01/12 04:33:52;;;;;;;19.92;3.35;;;12.50;99.90;;;;;;4945750;28;114023;-67
2022/01/12 04:36:18;;;;;;;9.82;2.53;;;12.50;99.90;;;;;;4943978;28;113917;-67
2022/01/12 04:38:45;;;;;;;37.05;7.78;;;12.50;99.90;;;;;;4944491;28;112537;-67
2022/01/12 04:41:11;;;;;;;44.80;10.07;;;12.50;99.90;;;;;;4927367;28;112699;-68
2022/01/12 04:43:41;;;;;;;47.38;8.57;;;12.50;99.90;;;;;;4925125;28;113613;-69
2022/01/12 04:47:03;;;;;;;32.60;6.97;;;12.50;99.90;;;;;;4942461;28;113621;-67
2022/01/12 04:51:41;;;;;;;30.90;5.93;;;12.50;99.90;;;;;;4946572;28;112610;-67
2022/01/12 04:54:07;;;;;;;25.73;5.32;;;12.50;99.90;;;;;;4943884;28;114140;-67
2022/01/12 04:56:33;;;;;;;23.58;5.05;;;12.50;99.90;;;;;;4925991;28;112695;-68
2022/01/12 04:58:59;;;;;;;29.88;4.80;;;12.50;99.90;;;;;;4945062;28;112255;-67
2022/01/12 05:01:27;;;;;;;24.17;4.60;;;12.50;99.90;;;;;;4945587;28;112854;-67
2022/01/12 05:07:08;;;;;;;16.75;4.45;;;12.50;99.90;;;;;;4934429;28;112764;-67
2022/01/12 05:14:53;;;;;;;34.80;5.82;;;12.60;99.90;;;;;;4944975;28;112732;-67
2022/01/12 05:17:21;;;;;;;42.50;6.43;;;12.50;99.90;;;;;;4944853;28;112856;-66
2022/01/12 05:19:47;;;;;;;55.95;9.52;;;12.50;99.90;;;;;;4944888;28;112426;-67
2022/01/12 05:22:13;;;;;;;45.90;8.38;;;12.50;99.90;;;;;;4944742;28;112552;-67
2022/01/12 05:24:39;;;;;;;31.17;7.15;;;12.50;99.90;;;;;;4926257;28;114279;-67
2022/01/12 05:27:04;;;;;;;26.08;5.55;;;12.50;99.90;;;;;;4925896;28;113622;-69
2022/01/12 05:29:30;;;;;;;28.33;5.00;;;12.50;99.90;;;;;;4944160;28;113035;-66
2022/01/12 05:31:56;;;;;;;21.65;5.00;;;12.60;99.90;;;;;;4955801;28;112709;-66
2022/01/12 05:34:24;;;;;;;21.60;5.03;;;12.50;99.90;;;;;;4942259;28;113542;-69
2022/01/12 05:36:50;;;;;;;41.72;9.13;;;12.50;99.90;;;;;;4958343;28;112846;-68
2022/01/12 05:39:17;;;;;;;54.70;8.65;;;12.50;99.90;;;;;;4944557;28;112407;-67
2022/01/12 05:41:43;;;;;;;32.00;7.32;;;12.60;99.90;;;;;;4943845;28;112602;-67
2022/01/12 05:44:10;;;;;;;28.73;5.57;;;12.60;99.90;;;;;;4943834;28;112970;-68
2022/01/12 05:46:39;;;;;;;30.70;6.78;;;12.60;99.90;;;;;;4943592;28;113379;-69
2022/01/12 05:51:51;;;;;;;29.83;8.10;;;12.60;99.90;;;;;;4945374;28;112674;-69
2022/01/12 05:54:17;;;;;;;24.42;6.18;;;12.60;99.90;;;;;;4942665;28;114065;-68
2022/01/12 05:56:43;;;;;;;28.23;5.97;;;12.60;99.90;;;;;;4941545;28;116006;-67
2022/01/12 05:59:09;;;;;;;24.92;5.82;;;12.60;99.90;;;;;;4943354;28;113646;-67
2022/01/12 06:01:35;;;;;;;29.92;7.13;;;12.50;99.90;;;;;;4944814;28;112572;-68
2022/01/12 06:04:01;;;;;;;30.05;6.40;;;12.60;99.90;;;;;;4963244;28;114493;-67
2022/01/12 06:06:27;;;;;;;32.15;6.38;;;12.60;99.90;;;;;;4946331;28;115472;-68
2022/01/12 06:08:52;;;;;;;26.80;7.18;;;12.50;99.90;;;;;;4950010;28;112774;-67
2022/01/12 06:11:18;;;;;;;26.42;5.65;;;12.60;99.90;;;;;;4967276;28;113017;-66
2022/01/12 06:13:44;;;;;;;25.95;6.70;;;12.60;99.90;;;;;;4965915;28;114113;-69
2022/01/12 06:16:10;;;;;;;31.33;6.85;;;12.60;99.90;;;;;;4931645;28;112585;-68
2022/01/12 06:18:36;;;;;;;20.63;5.85;;;12.60;99.90;;;;;;4965428;28;112304;-68
2022/01/12 06:21:01;;;;;;;22.35;6.88;;;12.60;99.90;;;;;;4956457;28;112750;-67
2022/01/12 06:23:27;;;;;;;26.80;5.72;;;12.50;99.90;;;;;;4947749;28;114327;-66
2022/01/12 06:25:56;;;;;;;33.60;6.75;;;12.60;99.90;;;;;;4947909;28;113540;-67
2022/01/12 06:28:42;;;;;;;23.65;5.70;;;12.50;99.90;;;;;;4950226;28;112497;-66
2022/01/12 06:31:10;;;;;;;20.20;4.53;;;12.50;99.90;;;;;;4951810;28;112356;-68
2022/01/12 06:33:40;;;;;;;18.65;5.28;;;12.50;99.90;;;;;;4952157;28;112403;-67
2022/01/12 06:36:07;;;;;;;19.10;4.15;;;12.40;99.90;;;;;;4954453;28;112970;-67
2022/01/12 06:38:33;;;;;;;21.00;4.57;;;12.40;99.90;;;;;;4952510;28;112574;-67
2022/01/12 06:40:59;;;;;;;22.23;4.68;;;12.40;99.90;;;;;;4953653;28;112554;-68
2022/01/12 06:43:27;;;;;;;26.45;5.20;;;12.30;99.90;;;;;;4951081;28;113289;-68
2022/01/12 06:45:55;;;;;;;27.65;4.97;;;12.30;99.90;;;;;;4951337;28;112347;-69
2022/01/12 06:48:21;;;;;;;20.70;4.10;;;12.30;99.90;;;;;;4949292;28;112207;-68
2022/01/12 06:50:47;;;;;;;27.45;5.88;;;12.20;99.90;;;;;;4947204;28;112868;-68
2022/01/12 06:53:12;;;;;;;19.42;5.20;;;12.20;99.90;;;;;;4928648;28;113576;-67
2022/01/12 06:55:38;;;;;;;33.65;6.18;;;12.20;99.90;;;;;;4945306;28;113453;-69
2022/01/12 06:58:04;;;;;;;20.95;5.72;;;12.10;99.90;;;;;;4946892;28;112640;-68
2022/01/12 07:00:30;;;;;;;25.52;6.10;;;12.10;99.90;;;;;;4946391;28;112707;-69
2022/01/12 07:02:56;;;;;;;26.48;6.43;;;12.00;99.90;;;;;;4945864;28;113565;-67
2022/01/12 07:05:21;;;;;;;27.63;6.05;;;12.00;99.90;;;;;;4944628;28;113817;-67
2022/01/12 07:07:47;;;;;;;34.13;7.55;;;11.90;99.90;;;;;;4947075;28;112327;-68
2022/01/12 07:10:13;;;;;;;20.95;5.63;;;11.80;99.90;;;;;;4946626;28;112421;-67
2022/01/12 07:12:39;;;;;;;19.10;4.65;;;11.80;99.90;;;;;;4944899;28;116736;-64
2022/01/12 07:15:05;;;;;;;24.73;5.68;;;11.70;99.90;;;;;;4947684;28;113665;-67
2022/01/12 07:17:31;;;;;;;20.85;5.70;;;11.70;99.90;;;;;;4961052;28;112458;-63
2022/01/12 07:19:57;;;;;;;30.20;5.32;;;11.60;99.90;;;;;;4947447;28;112551;-63
2022/01/12 07:22:22;;;;;;;21.13;4.95;;;11.60;99.90;;;;;;4944913;28;114316;-64
2022/01/12 07:24:48;;;;;;;21.42;5.97;;;11.50;99.90;;;;;;4959256;28;112447;-63
2022/01/12 07:27:14;;;;;;;18.98;4.70;;;11.50;99.90;;;;;;4949391;28;112358;-64
2022/01/12 07:29:39;;;;;;;21.52;4.28;;;11.40;99.90;;;;;;4951223;28;112702;-63
2022/01/12 07:32:06;;;;;;;18.98;3.90;;;11.40;99.90;;;;;;4955714;28;113261;-62
2022/01/12 07:34:31;;;;;;;18.40;5.38;;;11.30;99.90;;;;;;4944744;28;114011;-63
2022/01/12 07:36:57;;;;;;;21.30;4.75;;;11.30;99.90;;;;;;4959478;28;112739;-65
2022/01/12 07:39:23;;;;;;;19.25;4.30;;;11.30;99.90;;;;;;4950777;28;112587;-63
2022/01/12 07:41:49;;;;;;;21.00;4.20;;;11.30;99.90;;;;;;4950297;28;114113;-64
2022/01/12 07:44:15;;;;;;;21.02;5.13;;;11.20;99.90;;;;;;4953743;28;113405;-63
2022/01/12 07:46:41;;;;;;;20.35;3.78;;;11.20;99.90;;;;;;4957684;28;112762;-61
2022/01/12 07:49:06;;;;;;;18.65;5.13;;;11.20;99.90;;;;;;4962193;28;114240;-63
2022/01/12 07:51:32;;;;;;;24.50;4.70;;;11.10;99.90;;;;;;4932201;28;113617;-63
2022/01/12 07:53:58;;;;;;;19.38;5.00;;;11.10;99.90;;;;;;4957614;28;113971;-64
2022/01/12 07:56:24;;;;;;;15.05;4.63;;;11.10;99.90;;;;;;4949596;28;112693;-64
2022/01/12 07:58:50;;;;;;;20.48;5.68;;;11.10;99.90;;;;;;4950666;28;112592;-64
2022/01/12 08:01:16;;;;;;;17.08;3.55;;;11.10;99.90;;;;;;4960331;28;114097;-64
2022/01/12 08:03:41;;;;;;;20.73;3.83;;;11.00;99.90;;;;;;4931198;28;112740;-64
2022/01/12 08:06:07;;;;;;;16.20;4.68;;;11.10;99.90;;;;;;4954993;28;112413;-63
2022/01/12 08:08:33;;;;;;;22.58;4.78;;;11.00;99.90;;;;;;4957210;28;112452;-65
2022/01/12 08:10:59;;;;;;;20.27;5.32;;;11.00;99.90;;;;;;4949036;28;115336;-65
2022/01/12 08:13:25;;;;;;;18.75;3.72;;;11.00;99.90;;;;;;4945759;28;115051;-65
2022/01/12 08:15:51;;;;;;;17.40;4.47;;;11.00;99.90;;;;;;4958490;28;112591;-63
2022/01/12 08:18:17;;;;;;;21.63;7.18;;;11.00;99.90;;;;;;4937201;28;113158;-65
2022/01/12 08:20:43;;;;;;;26.58;4.78;;;11.00;99.90;;;;;;4957901;28;114228;-64
2022/01/12 08:23:09;;;;;;;20.50;3.70;;;11.00;99.90;;;;;;4969505;22;112676;-64
2022/01/12 08:25:39;;;;;;;22.17;4.28;;;11.00;99.90;;;;;;4982806;28;112915;-67
2022/01/12 08:28:06;;;;;;;15.95;5.03;;;11.10;99.90;;;;;;4966210;28;112699;-68
2022/01/12 08:30:34;;;;;;;23.38;4.70;;;11.10;99.90;;;;;;4967335;28;113315;-63
2022/01/12 08:33:02;;;;;;;18.08;4.25;;;11.10;99.90;;;;;;4953496;28;113138;-66
2022/01/12 08:35:28;;;;;;;20.00;4.75;;;11.10;99.90;;;;;;4975223;28;112646;-66
2022/01/12 08:37:54;;;;;;;20.13;5.32;;;11.10;99.90;;;;;;4984432;28;112508;-67
2022/01/12 08:40:21;;;;;;;19.52;6.43;;;11.10;99.90;;;;;;4956697;28;116240;-67
2022/01/12 08:42:47;;;;;;;14.10;4.00;;;11.20;99.90;;;;;;5068769;22;115165;-63
2022/01/12 08:45:16;;;;;;;23.08;5.07;;;11.20;99.90;;;;;;4964971;28;112883;-62
2022/01/12 08:47:42;;;;;;;22.40;7.78;;;11.20;99.90;;;;;;4982578;28;112787;-62
2022/01/12 08:50:09;;;;;;;17.75;6.38;;;11.30;99.90;;;;;;4964884;28;114271;-63
2022/01/12 08:52:35;;;;;;;19.33;4.40;;;11.30;99.90;;;;;;4982707;28;114388;-63
2022/01/12 08:55:01;;;;;;;25.63;6.20;;;11.40;99.90;;;;;;4984008;28;112371;-65
2022/01/12 08:57:30;;;;;;;30.08;6.28;;;11.40;99.90;;;;;;4983399;28;112503;-64
2022/01/12 09:00:00;;;;;;;27.58;7.65;;;11.50;99.90;;;;;;4982190;28;113102;-64
2022/01/12 09:02:26;;;;;;;25.95;7.07;;;11.50;99.90;;;;;;4982413;28;112661;-64
2022/01/12 09:04:52;;;;;;;30.92;6.53;;;11.60;99.90;;;;;;4983812;28;112627;-64
2022/01/12 09:07:18;;;;;;;27.25;6.57;;;11.60;99.90;;;;;;4983662;28;112384;-64
2022/01/12 09:09:44;;;;;;;31.00;6.15;;;11.60;99.90;;;;;;4965259;28;113240;-64
2022/01/12 09:12:10;;;;;;;29.80;6.22;;;11.70;99.90;;;;;;4982098;28;113490;-64
2022/01/12 09:14:36;;;;;;;34.88;6.53;;;11.70;99.90;;;;;;4983262;28;112460;-64
2022/01/12 09:17:03;;;;;;;30.50;6.15;;;11.80;99.90;;;;;;4983566;28;112451;-63
2022/01/12 09:19:29;;;;;;;24.77;5.57;;;11.80;99.90;;;;;;4976264;22;114539;-66
2022/01/12 09:21:56;;;;;;;36.45;8.07;;;11.80;99.90;;;;;;4929200;28;114148;-65
2022/01/12 09:24:25;;;;;;;27.02;6.57;;;11.90;99.90;;;;;;4964170;22;118098;-65
2022/01/12 09:26:51;;;;;;;26.42;6.75;;;11.90;99.90;;;;;;4926875;28;112729;-66
2022/01/12 09:29:18;;;;;;;28.52;8.07;;;11.90;99.90;;;;;;4925975;28;112989;-67
2022/01/12 09:31:43;;;;;;;21.83;7.22;;;12.00;99.90;;;;;;4936237;28;113092;-68
2022/01/12 09:34:09;;;;;;;26.52;6.88;;;12.00;99.90;;;;;;4928891;28;112496;-64
2022/01/12 09:36:35;;;;;;;46.45;7.25;;;12.00;99.90;;;;;;4935745;28;113434;-63
2022/01/12 09:39:03;;;;;;;27.17;8.38;;;12.10;99.90;;;;;;4935206;28;112879;-65
2022/01/12 09:41:28;;;;;;;20.77;5.00;;;12.10;99.90;;;;;;4910909;28;116491;-64
2022/01/12 09:43:57;;;;;;;20.25;6.00;;;12.20;99.90;;;;;;4944806;28;112621;-65
2022/01/12 09:46:24;;;;;;;17.90;5.03;;;12.20;99.90;;;;;;4945285;28;112505;-64
2022/01/12 09:48:50;;;;;;;23.85;5.72;;;12.30;99.90;;;;;;4935856;28;113485;-64
2022/01/12 09:51:16;;;;;;;27.48;5.38;;;12.30;99.90;;;;;;4906542;28;115596;-64
2022/01/12 09:53:44;;;;;;;46.35;8.75;;;12.30;99.90;;;;;;4928968;28;112663;-65
2022/01/12 09:56:39;;;;;;;24.88;6.80;;;12.40;99.90;;;;;;4945803;28;112546;-65
2022/01/12 09:59:05;;;;;;;32.72;6.28;;;12.50;99.90;;;;;;4932623;28;113811;-64
2022/01/12 10:01:37;;;;;;;24.75;9.13;;;12.50;99.90;;;;;;4945527;28;112468;-64
2022/01/12 10:04:14;;;;;;;26.80;7.60;;;12.60;99.90;;;;;;4928775;28;112362;-64
2022/01/12 10:06:43;;;;;;;28.73;5.30;;;12.70;99.90;;;;;;4947018;28;112635;-64
2022/01/12 10:09:09;;;;;;;31.63;6.60;;;12.60;99.90;;;;;;4943688;28;114538;-64
2022/01/12 10:12:04;;;;;;;29.95;7.93;;;12.70;99.90;;;;;;4914561;28;113732;-64
2022/01/12 10:14:49;;;;;;;24.63;5.78;;;12.70;99.90;;;;;;4933574;28;113116;-65
2022/01/12 10:17:19;;;;;;;20.83;5.20;;;12.80;99.90;;;;;;4946100;28;112575;-63
2022/01/12 10:19:46;;;;;;;28.55;5.68;;;12.90;99.90;;;;;;4945578;28;115131;-64
2022/01/12 10:22:16;;;;;;;35.33;7.68;;;12.90;99.90;;;;;;4924378;28;116131;-64
2022/01/12 10:24:45;;;;;;;25.23;5.53;;;13.00;99.90;;;;;;4939025;28;112524;-64
2022/01/12 10:27:20;;;;;;;19.63;4.32;;;13.00;99.90;;;;;;4946061;28;112315;-64
2022/01/12 10:29:55;;;;;;;13.82;5.93;;;13.00;99.90;;;;;;4940278;28;115143;-64
2022/01/12 10:32:21;;;;;;;29.55;5.78;;;13.00;99.90;;;;;;4926205;28;112947;-64
2022/01/12 10:34:49;;;;;;;33.05;6.13;;;13.10;99.90;;;;;;4926249;28;112572;-64
2022/01/12 10:37:17;;;;;;;23.13;5.82;;;13.10;99.90;;;;;;4926877;28;112648;-64
2022/01/12 10:39:49;;;;;;;33.08;6.85;;;13.10;99.90;;;;;;4926167;28;113464;-65
2022/01/12 10:42:18;;;;;;;26.73;7.78;;;13.10;99.90;;;;;;4925619;28;113544;-64
2022/01/12 10:45:02;;;;;;;55.78;13.93;;;13.10;99.90;;;;;;4927709;28;112358;-64
2022/01/12 10:47:32;;;;;;;35.28;9.00;;;13.10;99.90;;;;;;4926944;28;112343;-64
2022/01/12 10:50:03;;;;;;;26.70;6.35;;;13.10;99.90;;;;;;4925536;28;113472;-63
2022/01/12 10:52:39;;;;;;;24.73;6.38;;;13.10;99.90;;;;;;4924895;28;113088;-65
2022/01/12 10:55:11;;;;;;;42.22;8.57;;;13.10;99.90;;;;;;4925624;28;112323;-65
2022/01/12 10:57:39;;;;;;;41.80;10.30;;;13.10;99.90;;;;;;4926681;28;112372;-64
2022/01/12 11:00:22;;;;;;;47.20;10.38;;;13.10;99.90;;;;;;4924808;28;114974;-65
2022/01/12 11:03:07;;;;;;;40.42;9.70;;;13.10;99.90;;;;;;4908188;28;114974;-64
2022/01/12 11:05:33;;;;;;;47.38;10.40;;;13.10;99.90;;;;;;4926538;28;112729;-64
2022/01/12 11:07:59;;;;;;;44.58;9.13;;;13.10;99.90;;;;;;4908965;28;112389;-64
2022/01/12 11:10:27;;;;;;;30.58;7.25;;;13.10;99.90;;;;;;4908757;28;115309;-63
2022/01/12 11:12:53;;;;;;;38.95;8.65;;;13.20;99.90;;;;;;4948580;22;115476;-66
2022/01/12 11:15:21;;;;;;;47.83;8.50;;;13.10;99.90;;;;;;4964883;28;112437;-64
2022/01/12 11:17:49;;;;;;;47.97;8.02;;;13.20;99.90;;;;;;4964585;28;112339;-65
2022/01/12 11:20:32;;;;;;;30.95;6.85;;;13.20;99.90;;;;;;4963775;28;115346;-65
2022/01/12 11:23:03;;;;;;;40.80;7.68;;;13.20;99.90;;;;;;4930848;28;116099;-64
2022/01/12 11:25:41;;;;;;;27.50;7.53;;;13.30;99.90;;;;;;4965027;28;112339;-64
2022/01/12 11:28:14;;;;;;;47.53;10.10;;;13.30;99.90;;;;;;4965416;28;112660;-68
2022/01/12 11:30:58;;;;;;;42.00;11.07;;;13.40;99.90;;;;;;4963852;28;114439;-68
2022/01/12 11:33:30;;;;;;;36.67;10.13;;;13.40;99.90;;;;;;4964106;28;113721;-68
2022/01/12 11:36:00;;;;;;;31.48;7.70;;;13.50;99.90;;;;;;4964817;28;112595;-69
2022/01/12 11:38:34;;;;;;;39.58;10.40;;;13.60;99.90;;;;;;4964386;28;112374;-68
2022/01/12 11:41:11;;;;;;;44.08;7.38;;;13.70;99.90;;;;;;4929202;28;115657;-67
2022/01/12 11:43:45;;;;;;;49.95;11.02;;;13.80;99.90;;;;;;4963476;28;113779;-69
2022/01/12 11:46:17;;;;;;;39.17;8.65;;;13.90;99.90;;;;;;4958529;22;112875;-68
2022/01/12 11:48:50;;;;;;;48.17;8.50;;;14.20;99.90;;;;;;4987406;28;112475;-68
2022/01/12 11:51:18;;;;;;;38.88;7.57;;;14.40;99.90;;;;;;4972727;28;116078;-68
2022/01/12 11:53:52;;;;;;;21.23;5.88;;;14.80;99.90;;;;;;4992237;28;112916;-70
2022/01/12 11:56:25;;;;;;;61.10;8.68;;;15.10;99.90;;;;;;4993873;28;112258;-69
2022/01/12 11:58:58;;;;;;;57.42;11.35;;;15.50;99.90;;;;;;4994092;28;112557;-69
2022/01/12 12:01:36;;;;;;;34.95;9.32;;;16.00;99.90;;;;;;4994760;28;112567;-67
2022/01/12 12:04:04;;;;;;;53.30;9.10;;;16.60;99.90;;;;;;4988391;28;112587;-69
2022/01/12 12:06:32;;;;;;;54.45;10.63;;;17.40;99.90;;;;;;4985556;28;112534;-67
2022/01/12 12:08:59;;;;;;;37.40;7.80;;;17.90;99.90;;;;;;4984330;28;112332;-68
2022/01/12 12:11:28;;;;;;;40.45;8.95;;;18.40;99.90;;;;;;4983591;28;114087;-69
2022/01/12 12:14:06;;;;;;;39.47;9.43;;;18.70;99.90;;;;;;4983904;28;114267;-68
2022/01/12 12:16:34;;;;;;;41.33;8.32;;;19.10;99.90;;;;;;4984114;28;112720;-70
2022/01/12 12:19:05;;;;;;;36.25;7.20;;;19.50;99.90;;;;;;4983988;28;112495;-67
2022/01/12 12:21:33;;;;;;;33.20;7.28;;;19.90;99.90;;;;;;4983129;28;113019;-68
2022/01/12 12:24:10;;;;;;;30.75;7.30;;;20.20;99.90;;;;;;4965714;28;115686;-70
2022/01/12 12:26:51;;;;;;;30.02;7.28;;;20.60;99.90;;;;;;4984432;28;112420;-68
2022/01/12 12:29:26;;;;;;;31.38;7.68;;;20.90;99.90;;;;;;4984340;28;112627;-69
2022/01/12 12:31:54;;;;;;;32.72;7.55;;;21.10;99.20;;;;;;4983701;28;113100;-70
2022/01/12 12:34:24;;;;;;;30.17;8.70;;;21.30;97.50;;;;;;4964685;28;113547;-69
2022/01/12 12:37:03;;;;;;;43.33;9.00;;;21.50;97.30;;;;;;4984065;28;112417;-68
2022/01/12 12:39:32;;;;;;;35.70;8.20;;;22.00;95.80;;;;;;4984292;28;112293;-69
2022/01/12 12:41:59;;;;;;;40.53;9.90;;;22.30;95.10;;;;;;4982848;28;114696;-69
2022/01/12 12:44:29;;;;;;;33.22;6.72;;;22.60;94.40;;;;;;4983255;28;112968;-70
2022/01/12 12:47:11;;;;;;;34.75;8.63;;;23.10;92.20;;;;;;4982701;28;113374;-69
2022/01/12 12:49:50;;;;;;;30.85;7.07;;;23.50;91.60;;;;;;4983284;28;112697;-69
2022/01/12 12:52:37;;;;;;;28.58;7.40;;;23.70;89.00;;;;;;4982891;28;113124;-69
2022/01/12 12:55:13;;;;;;;32.47;8.68;;;24.20;86.10;;;;;;4982393;28;112872;-71
2022/01/12 12:57:53;;;;;;;23.10;5.00;;;24.40;81.20;;;;;;4983410;28;112595;-69
2022/01/12 13:00:25;;;;;;;25.65;5.28;;;24.80;77.20;;;;;;4983135;28;112437;-69
2022/01/12 13:02:56;;;;;;;28.15;7.25;;;24.80;76.60;;;;;;4983160;28;112846;-66
2022/01/12 13:05:41;;;;;;;22.02;4.05;;;25.10;74.80;;;;;;4973009;22;113698;-64
2022/01/12 13:08:09;;;;;;;15.30;4.57;;;25.20;73.00;;;;;;4963274;28;112330;-63
2022/01/12 13:10:36;;;;;;;16.15;4.80;;;25.40;70.60;;;;;;4929721;28;112622;-65
2022/01/12 13:13:05;;;;;;;8.40;3.95;;;25.80;70.70;;;;;;4960992;28;114871;-64
2022/01/12 13:15:35;;;;;;;16.92;3.70;;;26.20;69.50;;;;;;4961842;28;114121;-69
2022/01/12 13:18:04;;;;;;;15.73;3.88;;;26.30;67.20;;;;;;4945163;28;112317;-67
2022/01/12 13:23:18;;;;;;;20.95;5.85;;;26.90;66.90;;;;;;4947259;28;112742;-68
2022/01/12 13:25:44;;;;;;;7.90;3.30;;;27.50;66.50;;;;;;4949658;28;113590;-69
2022/01/12 13:28:10;;;;;;;13.57;4.47;;;27.60;63.30;;;;;;4951957;28;112360;-69
2022/01/12 13:30:51;;;;;;;22.85;6.05;;;27.70;63.60;;;;;;4960416;28;114114;-68
2022/01/12 13:33:35;;;;;;;25.70;7.03;;;27.90;62.90;;;;;;4951364;28;114173;-67
2022/01/12 13:36:31;;;;;;;14.77;4.00;;;27.90;62.40;;;;;;4971083;22;114443;-70
2022/01/12 13:39:00;;;;;;;12.98;3.15;;;28.30;61.90;;;;;;4962165;28;112749;-70
2022/01/12 13:41:29;;;;;;;10.73;3.57;;;28.30;59.60;;;;;;4973270;28;112601;-70
2022/01/12 13:44:07;;;;;;;23.95;6.03;;;27.70;59.50;;;;;;4970608;28;113089;-70
2022/01/12 13:47:01;;;;;;;26.60;4.97;;;27.00;61.10;;;;;;4971088;28;113672;-70
2022/01/12 13:49:27;;;;;;;17.42;4.43;;;27.10;61.50;;;;;;4972999;28;112857;-70
2022/01/12 13:52:07;;;;;;;20.58;4.90;;;27.00;60.10;;;;;;4971482;28;112378;-69
2022/01/12 13:54:38;;;;;;;13.63;3.90;;;27.00;60.80;;;;;;4974631;28;114400;-71
2022/01/12 13:57:06;;;;;;;9.02;3.75;;;26.80;60.30;;;;;;4979156;28;112679;-69
2022/01/12 13:59:43;;;;;;;13.73;3.67;;;26.70;59.90;;;;;;4955178;28;112914;-69